createdAt,value
2018-03-30T00:01:53.935Z,99913.33
2018-03-30T00:04:21.561Z,99911.67
2018-03-30T00:06:49.179Z,99912.33
2018-03-30T00:09:28.466Z,99907.55
2018-03-30T00:11:56.068Z,99910.80
2018-03-30T00:14:23.665Z,99914.53
2018-03-30T00:16:51.282Z,99911.55
2018-03-30T00:19:18.867Z,99912.86
2018-03-30T00:21:46.616Z,99901.22
2018-03-30T00:24:14.229Z,99910.61
2018-03-30T00:26:41.903Z,99906.48
2018-03-30T00:29:09.603Z,99902.72
2018-03-30T00:31:37.222Z,99905.77
2018-03-30T00:34:11.375Z,99897.02
2018-03-30T00:36:39.064Z,99893.05
2018-03-30T00:39:06.648Z,99894.50
2018-03-30T00:41:34.270Z,99893.72
2018-03-30T00:44:01.923Z,99894.75
2018-03-30T00:46:29.623Z,99887.84
2018-03-30T00:48:57.209Z,99884.50
2018-03-30T00:51:25.022Z,99878.89
2018-03-30T00:53:52.654Z,99882.08
2018-03-30T00:56:20.304Z,99883.39
2018-03-30T00:58:47.896Z,99872.70
2018-03-30T01:01:15.485Z,99870.30
2018-03-30T01:03:43.258Z,99870.30
2018-03-30T01:06:10.895Z,99869.70
2018-03-30T01:08:38.529Z,99872.65
2018-03-30T01:11:09.865Z,99863.87
2018-03-30T01:13:37.555Z,99859.84
2018-03-30T01:16:05.278Z,99861.86
2018-03-30T01:18:32.918Z,99860.94
2018-03-30T01:21:00.577Z,99851.23
2018-03-30T01:23:28.288Z,99851.94
2018-03-30T01:25:55.892Z,99846.73
2018-03-30T01:28:23.585Z,99845.00
2018-03-30T01:30:51.150Z,99839.92
2018-03-30T01:33:18.778Z,99843.33
2018-03-30T01:35:46.405Z,99840.27
2018-03-30T01:38:14.023Z,99834.38
2018-03-30T01:40:41.604Z,99831.74
2018-03-30T01:43:09.215Z,99825.20
2018-03-30T01:45:36.809Z,99830.23
2018-03-30T01:48:04.441Z,99826.14
2018-03-30T01:50:32.021Z,99830.62
2018-03-30T01:52:59.687Z,99828.65
2018-03-30T01:55:27.369Z,99825.86
2018-03-30T01:57:54.934Z,99830.11
2018-03-30T02:00:22.566Z,99825.34
2018-03-30T02:02:50.159Z,99821.61
2018-03-30T02:05:17.858Z,99820.13
2018-03-30T02:07:45.520Z,99822.77
2018-03-30T02:10:13.232Z,99816.55
2018-03-30T02:12:40.830Z,99816.95
2018-03-30T02:15:08.466Z,99815.73
2018-03-30T02:17:36.070Z,99813.06
2018-03-30T02:20:03.711Z,99808.94
2018-03-30T02:22:31.278Z,99807.07
2018-03-30T02:24:58.897Z,99807.89
2018-03-30T02:27:26.555Z,99803.64
2018-03-30T02:29:54.181Z,99796.84
2018-03-30T02:32:21.765Z,99795.91
2018-03-30T02:34:49.396Z,99793.27
2018-03-30T02:37:17.311Z,99793.41
2018-03-30T02:39:44.958Z,99788.50
2018-03-30T02:42:12.501Z,99785.03
2018-03-30T02:44:40.151Z,99788.63
2018-03-30T02:47:07.746Z,99788.20
2018-03-30T02:49:35.455Z,99780.25
2018-03-30T02:52:03.092Z,99785.31
2018-03-30T02:54:30.686Z,99786.11
2018-03-30T02:56:58.317Z,99774.67
2018-03-30T02:59:26.163Z,99773.20
2018-03-30T03:01:53.794Z,99781.63
2018-03-30T03:04:21.431Z,99778.15
2018-03-30T03:06:49.042Z,99774.69
2018-03-30T03:09:16.657Z,99774.52
2018-03-30T03:11:44.439Z,99778.82
2018-03-30T03:14:12.019Z,99778.69
2018-03-30T03:16:39.817Z,99778.41
2018-03-30T03:19:07.563Z,99778.84
2018-03-30T03:21:35.180Z,99777.08
2018-03-30T03:24:02.869Z,99775.09
2018-03-30T03:26:30.497Z,99766.55
2018-03-30T03:28:58.107Z,99769.49
2018-03-30T03:31:25.722Z,99764.81
2018-03-30T03:33:53.332Z,99769.09
2018-03-30T03:36:20.950Z,99762.18
2018-03-30T03:38:48.551Z,99762.18
2018-03-30T03:41:16.582Z,99770.20
2018-03-30T03:43:44.153Z,99763.02
2018-03-30T03:46:11.738Z,99757.55
2018-03-30T03:48:39.358Z,99762.06
2018-03-30T03:51:06.968Z,99757.80
2018-03-30T03:53:34.584Z,99755.03
2018-03-30T03:56:02.251Z,99754.52
2018-03-30T03:58:29.895Z,99761.80
2018-03-30T04:00:57.494Z,99754.21
2018-03-30T04:03:25.114Z,99752.63
2018-03-30T04:05:52.709Z,99747.31
2018-03-30T04:08:20.426Z,99750.38
2018-03-30T04:10:48.016Z,99747.31
2018-03-30T04:13:15.643Z,99755.30
2018-03-30T04:15:43.246Z,99756.75
2018-03-30T04:18:10.873Z,99751.71
2018-03-30T04:20:38.483Z,99754.64
2018-03-30T04:23:06.107Z,99759.16
2018-03-30T04:25:33.687Z,99750.27
2018-03-30T04:28:01.321Z,99751.98
2018-03-30T04:30:28.921Z,99754.40
2018-03-30T04:32:56.568Z,99757.06
2018-03-30T04:35:24.152Z,99754.94
2018-03-30T04:37:51.814Z,99757.19
2018-03-30T04:40:19.437Z,99749.59
2018-03-30T04:42:47.024Z,99743.19
2018-03-30T04:45:14.656Z,99728.66
2018-03-30T04:47:42.355Z,99732.14
2018-03-30T04:50:10.002Z,99738.39
2018-03-30T04:52:37.620Z,99750.52
2018-03-30T04:55:05.261Z,99747.43
2018-03-30T04:57:32.845Z,99741.98
2018-03-30T05:00:00.495Z,99747.03
2018-03-30T05:02:28.079Z,99745.70
2018-03-30T05:04:55.832Z,99742.91
2018-03-30T05:07:23.426Z,99746.64
2018-03-30T05:09:51.044Z,99748.50
2018-03-30T05:12:18.616Z,99749.45
2018-03-30T05:14:46.244Z,99745.90
2018-03-30T05:17:13.849Z,99748.95
2018-03-30T05:19:41.460Z,99749.59
2018-03-30T05:22:09.071Z,99758.78
2018-03-30T05:24:36.709Z,99756.82
2018-03-30T05:27:04.291Z,99764.80
2018-03-30T05:29:31.881Z,99763.34
2018-03-30T05:31:59.539Z,99762.26
2018-03-30T05:34:27.160Z,99756.45
2018-03-30T05:36:54.893Z,99748.94
2018-03-30T05:39:22.486Z,99741.89
2018-03-30T05:41:50.122Z,99740.81
2018-03-30T05:44:17.706Z,99740.27
2018-03-30T05:46:45.309Z,99739.20
2018-03-30T05:49:12.889Z,99743.09
2018-03-30T05:51:40.553Z,99741.78
2018-03-30T05:54:08.123Z,99742.86
2018-03-30T05:56:35.746Z,99734.06
2018-03-30T05:59:03.342Z,99735.11
2018-03-30T06:01:31.011Z,99745.36
2018-03-30T06:03:58.594Z,99740.44
2018-03-30T06:06:26.220Z,99738.07
2018-03-30T06:08:53.822Z,99737.55
2018-03-30T06:11:21.467Z,99735.81
2018-03-30T06:13:49.082Z,99739.27
2018-03-30T06:16:16.746Z,99741.80
2018-03-30T06:18:44.444Z,99753.28
2018-03-30T06:21:12.091Z,99751.94
2018-03-30T06:23:39.700Z,99751.80
2018-03-30T06:26:07.315Z,99743.95
2018-03-30T06:28:34.931Z,99742.91
2018-03-30T06:31:02.624Z,99734.52
2018-03-30T06:33:30.254Z,99729.86
2018-03-30T06:35:57.838Z,99730.28
2018-03-30T06:38:25.466Z,99728.27
2018-03-30T06:40:53.059Z,99725.09
2018-03-30T06:43:20.674Z,99714.42
2018-03-30T06:45:48.418Z,99710.84
2018-03-30T06:48:16.113Z,99706.59
2018-03-30T06:50:43.802Z,99716.84
2018-03-30T06:53:11.447Z,99710.47
2018-03-30T06:55:39.062Z,99719.67
2018-03-30T06:58:06.686Z,99718.21
2018-03-30T07:00:34.251Z,99712.75
2018-03-30T07:03:01.872Z,99699.94
2018-03-30T07:05:29.459Z,99701.69
2018-03-30T07:07:57.095Z,99705.28
2018-03-30T07:10:24.791Z,99703.54
2018-03-30T07:12:52.421Z,99700.19
2018-03-30T07:15:20.061Z,99690.31
2018-03-30T07:17:47.648Z,99702.44
2018-03-30T07:20:15.263Z,99697.23
2018-03-30T07:22:42.996Z,99688.69
2018-03-30T07:25:10.622Z,99692.27
2018-03-30T07:27:38.287Z,99681.73
2018-03-30T07:30:05.945Z,99674.23
2018-03-30T07:32:33.570Z,99674.08
2018-03-30T07:35:01.225Z,99666.70
2018-03-30T07:37:28.827Z,99670.16
2018-03-30T07:39:56.440Z,99666.91
2018-03-30T07:42:24.358Z,99665.44
2018-03-30T07:44:52.022Z,99671.67
2018-03-30T07:47:19.614Z,99668.22
2018-03-30T07:49:47.230Z,99667.78
2018-03-30T07:52:14.825Z,99667.77
2018-03-30T07:54:42.478Z,99667.31
2018-03-30T07:57:10.071Z,99667.64
2018-03-30T07:59:37.702Z,99664.81
2018-03-30T08:02:05.334Z,99663.05
2018-03-30T08:04:33.010Z,99657.85
2018-03-30T08:07:00.612Z,99658.48
2018-03-30T08:09:28.243Z,99654.76
2018-03-30T08:11:55.883Z,99650.47
2018-03-30T08:14:23.490Z,99644.67
2018-03-30T08:16:51.147Z,99645.81
2018-03-30T08:19:18.751Z,99631.45
2018-03-30T08:21:46.414Z,99632.03
2018-03-30T08:24:14.022Z,99624.88
2018-03-30T08:26:41.658Z,99628.75
2018-03-30T08:29:09.259Z,99623.38
2018-03-30T08:31:36.884Z,99616.70
2018-03-30T08:34:04.479Z,99615.85
2018-03-30T08:36:32.096Z,99615.92
2018-03-30T08:38:59.703Z,99621.61
2018-03-30T08:41:27.327Z,99615.02
2018-03-30T08:43:54.962Z,99618.78
2018-03-30T08:46:22.627Z,99616.76
2018-03-30T08:48:50.278Z,99613.74
2018-03-30T08:51:17.960Z,99609.54
2018-03-30T08:53:45.634Z,99606.45
2018-03-30T08:56:13.283Z,99607.56
2018-03-30T08:58:40.958Z,99605.91
2018-03-30T09:01:08.697Z,99594.75
2018-03-30T09:03:36.343Z,99592.22
2018-03-30T09:06:03.952Z,99592.53
2018-03-30T09:08:31.768Z,99591.99
2018-03-30T09:10:59.372Z,99582.47
2018-03-30T09:13:27.003Z,99583.78
2018-03-30T09:15:54.608Z,99576.38
2018-03-30T09:18:22.408Z,99571.95
2018-03-30T09:20:49.999Z,99576.98
2018-03-30T09:23:17.629Z,99575.69
2018-03-30T09:25:45.221Z,99565.34
2018-03-30T09:28:12.860Z,99558.18
2018-03-30T09:30:40.482Z,99560.25
2018-03-30T09:46:46.181Z,99539.60
2018-03-30T09:49:13.802Z,99539.53
2018-03-30T09:51:41.393Z,99537.88
2018-03-30T09:54:09.063Z,99537.46
2018-03-30T09:56:36.670Z,99535.25
2018-03-30T09:59:04.298Z,99522.69
2018-03-30T10:01:32.213Z,99526.06
2018-03-30T10:03:59.858Z,99520.37
2018-03-30T10:06:27.575Z,99517.12
2018-03-30T10:08:55.203Z,99518.25
2018-03-30T10:11:22.907Z,99508.28
2018-03-30T10:13:50.566Z,99519.81
2018-03-30T10:16:18.158Z,99517.74
2018-03-30T10:18:45.787Z,99514.73
2018-03-30T10:21:13.398Z,99505.73
2018-03-30T10:23:41.056Z,99498.25
2018-03-30T10:26:08.671Z,99484.47
2018-03-30T10:28:36.270Z,99489.81
2018-03-30T10:31:03.902Z,99470.08
2018-03-30T10:33:31.530Z,99468.36
2018-03-30T10:35:59.193Z,99464.97
2018-03-30T10:38:26.774Z,99473.38
2018-03-30T10:40:54.411Z,99461.98
2018-03-30T10:43:22.024Z,99445.63
2018-03-30T10:45:49.658Z,99454.10
2018-03-30T10:48:17.291Z,99448.27
2018-03-30T10:50:45.030Z,99431.20
2018-03-30T10:53:12.645Z,99421.22
2018-03-30T10:55:40.279Z,99404.68
2018-03-30T10:58:07.959Z,99414.58
2018-03-30T11:00:35.586Z,99397.80
2018-03-30T11:03:03.178Z,99399.13
2018-03-30T11:05:30.829Z,99382.05
2018-03-30T11:07:58.418Z,99366.41
2018-03-30T11:10:26.067Z,99352.70
2018-03-30T11:12:53.650Z,99348.58
2018-03-30T11:15:21.304Z,99343.97
2018-03-30T11:17:48.896Z,99331.52
2018-03-30T11:20:16.527Z,99324.99
2018-03-30T11:22:44.119Z,99315.28
2018-03-30T11:25:11.766Z,99309.86
2018-03-30T11:27:39.375Z,99301.08
2018-03-30T11:30:07.044Z,99300.03
2018-03-30T11:32:34.689Z,99297.31
2018-03-30T11:35:02.275Z,99302.56
2018-03-30T11:37:29.913Z,99294.70
2018-03-30T11:39:57.504Z,99295.20
2018-03-30T11:42:25.192Z,99300.27
2018-03-30T11:44:52.802Z,99317.30
2018-03-30T11:47:20.443Z,99315.91
2018-03-30T11:49:48.044Z,99317.14
2018-03-30T11:52:15.676Z,99316.02
2018-03-30T11:54:43.292Z,99315.78
2018-03-30T11:57:10.911Z,99307.19
2018-03-30T11:59:38.510Z,99305.17
2018-03-30T12:02:06.257Z,99296.52
2018-03-30T12:04:33.871Z,99299.95
2018-03-30T12:07:01.589Z,99302.00
2018-03-30T12:09:29.182Z,99308.45
2018-03-30T12:11:56.813Z,99304.62
2018-03-30T12:14:24.405Z,99297.49
2018-03-30T12:16:51.976Z,99292.20
2018-03-30T12:19:19.648Z,99292.67
2018-03-30T12:21:47.276Z,99289.59
2018-03-30T12:24:14.980Z,99287.77
2018-03-30T12:26:42.558Z,99288.60
2018-03-30T12:29:10.182Z,99288.36
2018-03-30T12:31:37.780Z,99290.76
2018-03-30T12:34:05.430Z,99284.64
2018-03-30T12:36:33.067Z,99280.06
2018-03-30T12:39:00.706Z,99289.99
2018-03-30T12:41:28.306Z,99278.18
2018-03-30T12:43:55.930Z,99286.27
2018-03-30T12:46:23.597Z,99285.77
2018-03-30T12:48:51.233Z,99282.22
2018-03-30T12:51:18.899Z,99287.81
2018-03-30T12:53:46.538Z,99281.16
2018-03-30T12:56:14.146Z,99281.95
2018-03-30T12:58:41.814Z,99273.12
2018-03-30T13:01:09.431Z,99273.13
2018-03-30T13:03:37.049Z,99262.47
2018-03-30T13:06:04.654Z,99274.44
2018-03-30T13:08:32.303Z,99273.08
2018-03-30T13:11:00.502Z,99266.70
2018-03-30T13:13:28.121Z,99268.50
2018-03-30T13:15:55.762Z,99263.52
2018-03-30T13:18:23.378Z,99261.66
2018-03-30T13:20:51.342Z,99257.94
2018-03-30T13:23:18.978Z,99254.55
2018-03-30T13:25:46.681Z,99247.77
2018-03-30T13:28:14.277Z,99234.38
2018-03-30T13:30:42.258Z,99230.67
2018-03-30T13:33:09.974Z,99226.27
2018-03-30T13:35:37.601Z,99222.19
2018-03-30T13:38:05.195Z,99210.72
2018-03-30T13:40:32.810Z,99201.25
2018-03-30T13:43:00.499Z,99204.19
2018-03-30T13:45:28.137Z,99200.55
2018-03-30T13:47:55.747Z,99197.22
2018-03-30T13:53:20.551Z,99187.98
2018-03-30T13:55:49.818Z,99183.95
2018-03-30T13:58:21.139Z,99179.95
2018-03-30T14:00:54.034Z,99174.66
2018-03-30T14:06:45.138Z,99173.14
2018-03-30T14:09:16.609Z,99169.70
2018-03-30T14:11:48.767Z,99186.22
2018-03-30T14:14:16.493Z,99179.31
2018-03-30T14:16:48.917Z,99178.58
2018-03-30T14:19:22.812Z,99176.63
2018-03-30T14:21:58.871Z,99168.06
2018-03-30T14:24:32.196Z,99166.45
2018-03-30T14:27:14.682Z,99160.16
2018-03-30T14:29:56.002Z,99159.44
2018-03-30T14:32:25.365Z,99154.13
2018-03-30T14:35:09.680Z,99152.58
2018-03-30T14:37:37.307Z,99149.97
2018-03-30T14:40:11.332Z,99150.01
2018-03-30T14:45:54.574Z,99141.65
2018-03-30T14:48:23.061Z,99140.58
2018-03-30T14:50:54.121Z,99140.99
2018-03-30T14:53:23.337Z,99133.56
2018-03-30T14:55:53.324Z,99132.95
2018-03-30T14:58:39.426Z,99130.31
2018-03-30T15:01:07.022Z,99124.80
2018-03-30T15:03:35.481Z,99112.45
2018-03-30T15:06:17.490Z,99118.84
2018-03-30T15:08:48.367Z,99106.09
2018-03-30T15:11:35.222Z,99117.13
2018-03-30T15:14:08.351Z,99112.13
2018-03-30T15:16:47.187Z,99109.51
2018-03-30T15:19:26.522Z,99110.13
2018-03-30T15:21:59.683Z,99106.57
2018-03-30T15:27:35.484Z,99096.95
2018-03-30T15:43:31.811Z,99086.34
2018-03-30T15:46:03.205Z,99077.41
2018-03-30T15:48:30.823Z,99071.55
2018-03-30T15:51:17.989Z,99068.65
2018-03-30T15:53:45.007Z,99079.78
2018-03-30T15:56:14.162Z,99070.70
2018-03-30T15:58:41.740Z,99066.91
2018-03-30T16:01:09.362Z,99065.16
2018-03-30T16:03:36.959Z,99069.27
2018-03-30T16:06:04.572Z,99063.27
2018-03-30T16:08:32.163Z,99066.45
2018-03-30T16:11:04.388Z,99073.71
2018-03-30T16:13:31.980Z,99073.76
2018-03-30T16:15:59.620Z,99076.23
2018-03-30T16:18:33.040Z,99069.19
2018-03-30T16:21:00.943Z,99070.81
2018-03-30T16:23:27.955Z,99080.40
2018-03-30T16:25:55.041Z,99084.06
2018-03-30T16:28:22.068Z,99082.72
2018-03-30T16:30:49.078Z,99082.80
2018-03-30T16:33:16.145Z,99086.59
2018-03-30T16:35:43.150Z,99091.03
2018-03-30T16:38:10.223Z,99099.31
2018-03-30T16:40:37.248Z,99101.63
2018-03-30T16:43:04.315Z,99098.45
2018-03-30T16:45:31.335Z,99099.66
2018-03-30T16:47:58.385Z,99093.66
2018-03-30T16:50:25.394Z,99098.80
2018-03-30T16:52:52.445Z,99088.05
2018-03-30T16:55:19.498Z,99084.16
2018-03-30T16:57:46.561Z,99080.94
2018-03-30T17:00:13.591Z,99076.34
2018-03-30T17:02:40.667Z,99076.13
2018-03-30T17:05:07.694Z,99076.91
2018-03-30T17:07:34.776Z,99072.87
2018-03-30T17:10:01.816Z,99069.39
2018-03-30T17:12:28.853Z,99078.89
2018-03-30T17:14:56.085Z,99075.26
2018-03-30T17:17:23.093Z,99073.97
2018-03-30T17:19:50.151Z,99076.44
2018-03-30T17:22:17.177Z,99073.91
2018-03-30T17:24:44.243Z,99065.92
2018-03-30T17:27:11.267Z,99073.99
2018-03-30T17:29:38.316Z,99071.95
2018-03-30T17:32:05.363Z,99080.30
2018-03-30T17:34:32.430Z,99081.51
2018-03-30T17:36:59.435Z,99092.17
2018-03-30T17:39:26.500Z,99096.69
2018-03-30T17:41:53.514Z,99089.16
2018-03-30T17:44:20.684Z,99088.95
2018-03-30T17:46:47.686Z,99086.49
2018-03-30T17:49:14.831Z,99082.05
2018-03-30T17:51:41.842Z,99087.27
2018-03-30T17:54:08.882Z,99087.66
2018-03-30T17:56:35.923Z,99079.11
2018-03-30T17:59:02.993Z,99077.34
2018-03-30T18:01:30.079Z,99071.02
2018-03-30T18:03:57.108Z,99072.88
2018-03-30T18:06:24.154Z,99074.54
2018-03-30T18:08:51.224Z,99080.31
2018-03-30T18:11:18.283Z,99081.50
2018-03-30T18:13:45.314Z,99086.19
2018-03-30T18:16:12.376Z,99092.34
2018-03-30T18:18:39.412Z,99096.50
2018-03-30T18:21:06.475Z,99097.45
2018-03-30T18:23:33.482Z,99099.91
2018-03-30T18:26:00.542Z,99119.36
2018-03-30T18:28:27.561Z,99113.86
2018-03-30T18:30:54.629Z,99118.88
2018-03-30T18:33:21.650Z,99107.92
2018-03-30T18:35:48.720Z,99112.56
2018-03-30T18:38:15.731Z,99102.25
2018-03-30T18:40:42.828Z,99109.89
2018-03-30T18:43:09.877Z,99123.04
2018-03-30T18:45:36.930Z,99122.73
2018-03-30T18:48:03.946Z,99123.87
2018-03-30T18:50:31.014Z,99129.86
2018-03-30T18:52:58.034Z,99128.06
2018-03-30T18:55:25.116Z,99138.16
2018-03-30T18:57:52.187Z,99124.78
2018-03-30T19:00:19.226Z,99132.27
2018-03-30T19:02:46.275Z,99120.25
2018-03-30T19:05:13.313Z,99127.16
2018-03-30T19:07:40.402Z,99127.14
2018-03-30T19:10:07.444Z,99128.00
2018-03-30T19:12:34.547Z,99127.13
2018-03-30T19:15:01.596Z,99120.22
2018-03-30T19:17:28.644Z,99124.90
2018-03-30T19:19:55.668Z,99128.36
2018-03-30T19:22:22.745Z,99136.95
2018-03-30T19:24:49.790Z,99134.31
2018-03-30T19:27:16.847Z,99132.36
2018-03-30T19:29:43.903Z,99141.13
2018-03-30T19:32:10.958Z,99146.26
2018-03-30T19:34:37.996Z,99137.66
2018-03-30T19:37:05.135Z,99140.42
2018-03-30T19:39:32.158Z,99144.89
2018-03-30T19:41:59.219Z,99137.89
2018-03-30T19:44:26.293Z,99149.41
2018-03-30T19:46:53.373Z,99142.60
2018-03-30T19:49:20.407Z,99145.98
2018-03-30T19:51:47.436Z,99137.66
2018-03-30T19:54:14.511Z,99144.19
2018-03-30T19:56:41.522Z,99141.71
2018-03-30T19:59:08.590Z,99142.72
2018-03-30T20:01:35.629Z,99145.61
2018-03-30T20:04:02.701Z,99147.45
2018-03-30T20:06:29.793Z,99152.73
2018-03-30T20:08:56.955Z,99141.09
2018-03-30T20:11:24.073Z,99151.05
2018-03-30T20:13:51.403Z,99154.36
2018-03-30T20:16:18.471Z,99156.30
2018-03-30T20:18:45.523Z,99166.70
2018-03-30T20:21:12.553Z,99164.23
2018-03-30T20:23:39.620Z,99172.59
2018-03-30T20:26:06.655Z,99174.57
2018-03-30T20:28:33.735Z,99175.02
2018-03-30T20:31:00.781Z,99182.85
2018-03-30T20:33:27.826Z,99181.45
2018-03-30T20:35:55.028Z,99179.81
2018-03-30T20:38:22.101Z,99175.39
2018-03-30T20:40:49.143Z,99176.14
2018-03-30T20:43:16.201Z,99177.37
2018-03-30T20:45:43.254Z,99172.47
2018-03-30T20:48:10.366Z,99170.23
2018-03-30T20:50:37.539Z,99170.91
2018-03-30T20:53:04.578Z,99167.83
2018-03-30T20:55:31.627Z,99177.30
2018-03-30T20:57:58.643Z,99163.89
2018-03-30T21:00:25.701Z,99170.47
2018-03-30T21:02:52.731Z,99168.45
2018-03-30T21:05:19.805Z,99167.16
2018-03-30T21:07:46.828Z,99171.72
2018-03-30T21:10:13.874Z,99172.03
2018-03-30T21:12:40.903Z,99171.28
2018-03-30T21:15:07.968Z,99167.02
2018-03-30T21:17:34.974Z,99178.71
2018-03-30T21:20:02.039Z,99173.33
2018-03-30T21:22:29.042Z,99172.91
2018-03-30T21:24:56.106Z,99172.44
2018-03-30T21:27:23.135Z,99171.66
2018-03-30T21:29:50.190Z,99175.18
2018-03-30T21:32:17.254Z,99168.98
2018-03-30T21:34:44.323Z,99167.31
2018-03-30T21:37:11.360Z,99160.06
2018-03-30T21:39:38.422Z,99166.64
2018-03-30T21:42:05.450Z,99171.69
2018-03-30T21:44:32.459Z,99164.19
2018-03-30T21:46:59.527Z,99169.31
2018-03-30T21:49:26.555Z,99171.39
2018-03-30T21:51:53.620Z,99173.31
2018-03-30T21:54:20.652Z,99182.56
2018-03-30T21:56:47.715Z,99184.86
2018-03-30T21:59:14.734Z,99186.30
2018-03-30T22:01:41.797Z,99194.97
2018-03-30T22:04:08.806Z,99196.97
2018-03-30T22:06:35.927Z,99198.98
2018-03-30T22:09:03.013Z,99197.13
2018-03-30T22:11:30.327Z,99192.97
2018-03-30T22:13:57.339Z,99193.34
2018-03-30T22:16:24.416Z,99196.42
2018-03-30T22:18:51.442Z,99203.39
2018-03-30T22:21:18.502Z,99191.52
2018-03-30T22:23:45.510Z,99189.30
2018-03-30T22:26:12.567Z,99190.31
2018-03-30T22:28:39.575Z,99194.06
2018-03-30T22:31:06.637Z,99192.49
2018-03-30T22:33:33.667Z,99191.71
2018-03-30T22:36:00.717Z,99197.34
2018-03-30T22:38:27.772Z,99193.52
2018-03-30T22:40:54.799Z,99182.77
2018-03-30T22:43:21.850Z,99188.30
2018-03-30T22:45:48.869Z,99193.00
2018-03-30T22:48:15.927Z,99184.06
2018-03-30T22:50:42.934Z,99185.41
2018-03-30T22:53:10.066Z,99192.12
2018-03-30T22:55:37.127Z,99182.91
2018-03-30T22:58:04.232Z,99188.77
2018-03-30T23:00:31.314Z,99181.34
2018-03-30T23:02:58.557Z,99181.45
2018-03-30T23:05:25.733Z,99180.12
2018-03-30T23:07:52.792Z,99180.81
2018-03-30T23:10:19.802Z,99170.81
2018-03-30T23:12:46.858Z,99175.86
2018-03-30T23:15:13.875Z,99170.27
2018-03-30T23:17:40.935Z,99175.06
2018-03-30T23:20:07.938Z,99170.74
2018-03-30T23:22:34.995Z,99171.53
2018-03-30T23:25:02.019Z,99171.97
2018-03-30T23:27:29.338Z,99175.68
2018-03-30T23:29:56.386Z,99173.16
2018-03-30T23:32:23.469Z,99175.42
2018-03-30T23:34:50.485Z,99179.08
2018-03-30T23:37:17.527Z,99175.06
2018-03-30T23:39:44.724Z,99177.30
2018-03-30T23:42:11.762Z,99176.56
2018-03-30T23:44:38.811Z,99182.62
2018-03-30T23:47:05.837Z,99187.92
2018-03-30T23:49:32.876Z,99190.39
2018-03-30T23:51:59.895Z,99191.52
2018-03-30T23:54:26.935Z,99197.92
2018-03-30T23:56:53.948Z,99202.58
2018-03-30T23:59:21.131Z,99188.85
